Terminal Aerodrome Forecast
Issued by NWS Melbourne, FL

Home | Current Version | Previous Version | Text Only | Print | Product List | Glossary On
Versions: 1 2 3 4 5 6 7 8 9 10 11 12 13 14 15 16 17 18 19 20 21 22 23 24 25 26
734
FTUS42 KMLB 280541
TAFMCO
TAF
KMCO 280541Z 2806/2912 15010KT P6SM SCT015 BKN025
      TEMPO 2806/2809 BKN015
     FM280900 16009KT P6SM SCT008 BKN015 BKN250
     FM281500 17013G22KT P6SM VCSH SCT025 BKN035 BKN250
     FM290000 17011KT P6SM SCT030 SCT150 BKN250=

USA.gov is the U.S. government's official web portal to all federal, state and local government web resources and services.